sensor_id;sensor_type;location;lat;lon;timestamp;P1;durP1;ratioP1;P2;durP2;ratioP2
53253;SDS011;39148;53.332;6.922;2023-03-31T00:02:23;17.00;;;2.92;;
53253;SDS011;39148;53.332;6.922;2023-03-31T00:04:50;17.35;;;3.15;;
53253;SDS011;39148;53.332;6.922;2023-03-31T00:07:19;22.65;;;4.07;;
53253;SDS011;39148;53.332;6.922;2023-03-31T00:09:48;16.30;;;2.75;;
53253;SDS011;39148;53.332;6.922;2023-03-31T00:12:14;16.17;;;3.42;;
53253;SDS011;39148;53.332;6.922;2023-03-31T00:14:41;18.38;;;3.13;;
53253;SDS011;39148;53.332;6.922;2023-03-31T00:17:08;16.90;;;3.63;;
53253;SDS011;39148;53.332;6.922;2023-03-31T00:19:34;20.10;;;3.53;;
53253;SDS011;39148;53.332;6.922;2023-03-31T00:22:01;13.40;;;2.85;;
53253;SDS011;39148;53.332;6.922;2023-03-31T00:24:29;15.82;;;2.78;;
53253;SDS011;39148;53.332;6.922;2023-03-31T00:27:03;16.02;;;3.20;;
53253;SDS011;39148;53.332;6.922;2023-03-31T00:29:29;17.95;;;3.08;;
53253;SDS011;39148;53.332;6.922;2023-03-31T00:31:57;17.67;;;2.83;;
53253;SDS011;39148;53.332;6.922;2023-03-31T00:34:24;18.10;;;3.00;;
53253;SDS011;39148;53.332;6.922;2023-03-31T00:36:50;18.73;;;2.72;;
53253;SDS011;39148;53.332;6.922;2023-03-31T00:39:20;17.25;;;2.85;;
53253;SDS011;39148;53.332;6.922;2023-03-31T00:41:48;16.02;;;3.00;;
53253;SDS011;39148;53.332;6.922;2023-03-31T00:46:56;16.23;;;3.13;;
53253;SDS011;39148;53.332;6.922;2023-03-31T00:49:46;19.85;;;3.00;;
53253;SDS011;39148;53.332;6.922;2023-03-31T00:52:21;17.65;;;2.95;;
53253;SDS011;39148;53.332;6.922;2023-03-31T00:54:51;15.80;;;2.92;;
53253;SDS011;39148;53.332;6.922;2023-03-31T00:57:26;17.67;;;3.30;;
53253;SDS011;39148;53.332;6.922;2023-03-31T00:59:58;16.42;;;3.13;;
53253;SDS011;39148;53.332;6.922;2023-03-31T01:02:30;14.30;;;2.92;;
53253;SDS011;39148;53.332;6.922;2023-03-31T01:04:56;15.65;;;3.05;;
53253;SDS011;39148;53.332;6.922;2023-03-31T01:07:28;19.33;;;3.55;;
53253;SDS011;39148;53.332;6.922;2023-03-31T01:10:07;17.92;;;3.33;;
53253;SDS011;39148;53.332;6.922;2023-03-31T01:12:36;15.18;;;3.25;;
53253;SDS011;39148;53.332;6.922;2023-03-31T01:15:03;15.50;;;2.70;;
53253;SDS011;39148;53.332;6.922;2023-03-31T01:17:29;17.83;;;3.00;;
53253;SDS011;39148;53.332;6.922;2023-03-31T01:31:16;14.88;;;3.17;;
53253;SDS011;39148;53.332;6.922;2023-03-31T01:34:17;14.30;;;2.72;;
53253;SDS011;39148;53.332;6.922;2023-03-31T01:52:20;17.70;;;3.33;;
53253;SDS011;39148;53.332;6.922;2023-03-31T01:57:53;13.38;;;2.90;;
53253;SDS011;39148;53.332;6.922;2023-03-31T02:00:30;15.35;;;2.30;;
53253;SDS011;39148;53.332;6.922;2023-03-31T02:05:24;14.20;;;2.60;;
53253;SDS011;39148;53.332;6.922;2023-03-31T02:07:52;13.65;;;2.95;;
53253;SDS011;39148;53.332;6.922;2023-03-31T02:10:25;14.20;;;2.92;;
53253;SDS011;39148;53.332;6.922;2023-03-31T02:12:55;16.77;;;2.90;;
53253;SDS011;39148;53.332;6.922;2023-03-31T02:15:23;13.98;;;2.92;;
53253;SDS011;39148;53.332;6.922;2023-03-31T02:17:52;16.05;;;2.80;;
53253;SDS011;39148;53.332;6.922;2023-03-31T02:20:20;14.15;;;2.40;;
53253;SDS011;39148;53.332;6.922;2023-03-31T02:22:48;13.18;;;2.80;;
53253;SDS011;39148;53.332;6.922;2023-03-31T02:25:16;15.45;;;3.15;;
53253;SDS011;39148;53.332;6.922;2023-03-31T02:27:46;14.90;;;3.08;;
53253;SDS011;39148;53.332;6.922;2023-03-31T02:30:20;13.32;;;2.42;;
53253;SDS011;39148;53.332;6.922;2023-03-31T02:32:46;11.75;;;2.47;;
53253;SDS011;39148;53.332;6.922;2023-03-31T02:35:14;15.93;;;3.30;;
53253;SDS011;39148;53.332;6.922;2023-03-31T02:37:41;14.85;;;2.67;;
53253;SDS011;39148;53.332;6.922;2023-03-31T02:40:09;10.13;;;2.42;;
53253;SDS011;39148;53.332;6.922;2023-03-31T02:42:39;12.02;;;2.55;;
53253;SDS011;39148;53.332;6.922;2023-03-31T02:45:34;11.93;;;2.20;;
53253;SDS011;39148;53.332;6.922;2023-03-31T02:47:52;11.65;;;2.35;;
53253;SDS011;39148;53.332;6.922;2023-03-31T02:50:19;10.90;;;2.20;;
53253;SDS011;39148;53.332;6.922;2023-03-31T02:53:02;13.05;;;2.47;;
53253;SDS011;39148;53.332;6.922;2023-03-31T03:02:00;11.73;;;2.13;;
53253;SDS011;39148;53.332;6.922;2023-03-31T03:04:05;12.93;;;2.60;;
53253;SDS011;39148;53.332;6.922;2023-03-31T03:06:46;12.48;;;2.47;;
53253;SDS011;39148;53.332;6.922;2023-03-31T03:16:42;12.00;;;2.15;;
53253;SDS011;39148;53.332;6.922;2023-03-31T03:19:16;13.05;;;2.15;;
53253;SDS011;39148;53.332;6.922;2023-03-31T03:21:43;10.18;;;2.20;;
53253;SDS011;39148;53.332;6.922;2023-03-31T03:24:09;16.42;;;3.50;;
53253;SDS011;39148;53.332;6.922;2023-03-31T03:26:36;12.13;;;2.42;;
53253;SDS011;39148;53.332;6.922;2023-03-31T03:29:02;12.35;;;2.47;;
53253;SDS011;39148;53.332;6.922;2023-03-31T03:31:28;10.45;;;2.35;;
53253;SDS011;39148;53.332;6.922;2023-03-31T03:33:54;11.55;;;2.03;;
53253;SDS011;39148;53.332;6.922;2023-03-31T03:36:20;13.85;;;2.42;;
53253;SDS011;39148;53.332;6.922;2023-03-31T03:38:47;11.43;;;1.77;;
53253;SDS011;39148;53.332;6.922;2023-03-31T03:41:13;13.23;;;2.60;;
53253;SDS011;39148;53.332;6.922;2023-03-31T03:43:39;14.93;;;2.70;;
53253;SDS011;39148;53.332;6.922;2023-03-31T03:46:05;12.90;;;2.33;;
53253;SDS011;39148;53.332;6.922;2023-03-31T03:48:31;12.40;;;2.30;;
53253;SDS011;39148;53.332;6.922;2023-03-31T03:50:58;10.57;;;2.00;;
53253;SDS011;39148;53.332;6.922;2023-03-31T03:53:25;10.50;;;2.25;;
53253;SDS011;39148;53.332;6.922;2023-03-31T03:55:51;10.85;;;2.10;;
53253;SDS011;39148;53.332;6.922;2023-03-31T03:58:17;10.35;;;1.90;;
53253;SDS011;39148;53.332;6.922;2023-03-31T04:00:44;13.13;;;2.67;;
53253;SDS011;39148;53.332;6.922;2023-03-31T04:03:10;11.60;;;2.75;;
53253;SDS011;39148;53.332;6.922;2023-03-31T04:05:36;11.50;;;2.13;;
53253;SDS011;39148;53.332;6.922;2023-03-31T04:08:02;10.95;;;2.00;;
53253;SDS011;39148;53.332;6.922;2023-03-31T04:10:30;9.75;;;2.13;;
53253;SDS011;39148;53.332;6.922;2023-03-31T04:12:56;11.18;;;2.05;;
53253;SDS011;39148;53.332;6.922;2023-03-31T04:15:22;9.52;;;2.10;;
53253;SDS011;39148;53.332;6.922;2023-03-31T04:17:48;10.25;;;2.00;;
53253;SDS011;39148;53.332;6.922;2023-03-31T04:20:19;10.00;;;1.88;;
53253;SDS011;39148;53.332;6.922;2023-03-31T04:22:45;9.23;;;1.75;;
53253;SDS011;39148;53.332;6.922;2023-03-31T04:25:14;11.52;;;2.15;;
53253;SDS011;39148;53.332;6.922;2023-03-31T04:27:47;10.50;;;2.42;;
53253;SDS011;39148;53.332;6.922;2023-03-31T04:30:23;11.10;;;1.92;;
53253;SDS011;39148;53.332;6.922;2023-03-31T04:32:58;6.70;;;1.58;;
53253;SDS011;39148;53.332;6.922;2023-03-31T04:35:25;10.18;;;1.88;;
53253;SDS011;39148;53.332;6.922;2023-03-31T04:38:02;9.45;;;2.28;;
53253;SDS011;39148;53.332;6.922;2023-03-31T04:40:28;11.73;;;2.15;;
53253;SDS011;39148;53.332;6.922;2023-03-31T04:42:53;8.93;;;2.05;;
53253;SDS011;39148;53.332;6.922;2023-03-31T04:45:19;8.90;;;2.13;;
53253;SDS011;39148;53.332;6.922;2023-03-31T04:47:45;10.52;;;2.17;;
53253;SDS011;39148;53.332;6.922;2023-03-31T04:50:12;6.97;;;1.80;;
53253;SDS011;39148;53.332;6.922;2023-03-31T04:52:38;8.70;;;1.58;;
53253;SDS011;39148;53.332;6.922;2023-03-31T04:55:04;10.73;;;1.90;;
53253;SDS011;39148;53.332;6.922;2023-03-31T04:57:30;8.23;;;2.05;;
53253;SDS011;39148;53.332;6.922;2023-03-31T04:59:56;7.80;;;1.90;;
53253;SDS011;39148;53.332;6.922;2023-03-31T05:02:22;9.98;;;2.30;;
53253;SDS011;39148;53.332;6.922;2023-03-31T05:04:48;9.82;;;2.53;;
53253;SDS011;39148;53.332;6.922;2023-03-31T05:07:18;8.60;;;1.85;;
53253;SDS011;39148;53.332;6.922;2023-03-31T05:09:45;6.47;;;1.77;;
53253;SDS011;39148;53.332;6.922;2023-03-31T05:12:11;10.20;;;2.25;;
53253;SDS011;39148;53.332;6.922;2023-03-31T05:14:38;7.75;;;2.00;;
53253;SDS011;39148;53.332;6.922;2023-03-31T05:17:04;7.78;;;2.05;;
53253;SDS011;39148;53.332;6.922;2023-03-31T05:19:30;11.30;;;2.55;;
53253;SDS011;39148;53.332;6.922;2023-03-31T05:21:56;8.82;;;1.77;;
53253;SDS011;39148;53.332;6.922;2023-03-31T05:24:21;7.88;;;1.95;;
53253;SDS011;39148;53.332;6.922;2023-03-31T05:26:47;9.45;;;2.20;;
53253;SDS011;39148;53.332;6.922;2023-03-31T05:29:20;8.18;;;2.05;;
53253;SDS011;39148;53.332;6.922;2023-03-31T05:31:46;7.35;;;1.77;;
53253;SDS011;39148;53.332;6.922;2023-03-31T05:34:12;7.85;;;2.17;;
53253;SDS011;39148;53.332;6.922;2023-03-31T05:36:38;6.50;;;1.75;;
53253;SDS011;39148;53.332;6.922;2023-03-31T05:39:04;6.30;;;1.80;;
53253;SDS011;39148;53.332;6.922;2023-03-31T05:41:31;7.78;;;1.60;;
53253;SDS011;39148;53.332;6.922;2023-03-31T05:43:57;6.68;;;1.77;;
53253;SDS011;39148;53.332;6.922;2023-03-31T05:46:24;8.65;;;1.77;;
53253;SDS011;39148;53.332;6.922;2023-03-31T05:48:50;8.38;;;2.10;;
53253;SDS011;39148;53.332;6.922;2023-03-31T05:51:17;6.80;;;2.17;;
53253;SDS011;39148;53.332;6.922;2023-03-31T05:53:43;7.80;;;1.90;;
53253;SDS011;39148;53.332;6.922;2023-03-31T05:56:09;7.45;;;1.88;;
53253;SDS011;39148;53.332;6.922;2023-03-31T05:58:36;6.03;;;1.65;;
53253;SDS011;39148;53.332;6.922;2023-03-31T06:01:10;7.30;;;1.50;;
53253;SDS011;39148;53.332;6.922;2023-03-31T06:03:37;6.93;;;2.10;;
53253;SDS011;39148;53.332;6.922;2023-03-31T06:06:05;5.30;;;1.67;;
53253;SDS011;39148;53.332;6.922;2023-03-31T06:08:32;5.72;;;1.80;;
53253;SDS011;39148;53.332;6.922;2023-03-31T06:10:58;7.55;;;1.83;;
53253;SDS011;39148;53.332;6.922;2023-03-31T06:13:25;7.88;;;1.63;;
53253;SDS011;39148;53.332;6.922;2023-03-31T06:15:54;6.63;;;1.98;;
53253;SDS011;39148;53.332;6.922;2023-03-31T06:18:22;6.38;;;1.90;;
53253;SDS011;39148;53.332;6.922;2023-03-31T06:20:48;7.40;;;1.73;;
53253;SDS011;39148;53.332;6.922;2023-03-31T06:23:14;4.72;;;1.63;;
53253;SDS011;39148;53.332;6.922;2023-03-31T06:25:40;5.82;;;1.83;;
53253;SDS011;39148;53.332;6.922;2023-03-31T06:28:05;5.78;;;2.00;;
53253;SDS011;39148;53.332;6.922;2023-03-31T06:30:31;4.03;;;1.40;;
53253;SDS011;39148;53.332;6.922;2023-03-31T06:32:58;5.00;;;1.60;;
53253;SDS011;39148;53.332;6.922;2023-03-31T06:35:24;6.13;;;1.75;;
53253;SDS011;39148;53.332;6.922;2023-03-31T06:37:50;6.22;;;1.42;;
53253;SDS011;39148;53.332;6.922;2023-03-31T06:40:16;5.93;;;1.60;;
53253;SDS011;39148;53.332;6.922;2023-03-31T06:42:43;5.43;;;1.50;;
53253;SDS011;39148;53.332;6.922;2023-03-31T06:45:09;7.63;;;1.67;;
53253;SDS011;39148;53.332;6.922;2023-03-31T06:47:35;4.78;;;1.50;;
53253;SDS011;39148;53.332;6.922;2023-03-31T06:50:05;7.00;;;1.50;;
53253;SDS011;39148;53.332;6.922;2023-03-31T06:52:31;7.18;;;2.00;;
53253;SDS011;39148;53.332;6.922;2023-03-31T06:54:57;5.35;;;1.60;;
53253;SDS011;39148;53.332;6.922;2023-03-31T06:57:24;6.38;;;1.70;;
53253;SDS011;39148;53.332;6.922;2023-03-31T06:59:50;5.65;;;1.38;;
53253;SDS011;39148;53.332;6.922;2023-03-31T07:02:16;7.80;;;1.75;;
53253;SDS011;39148;53.332;6.922;2023-03-31T07:04:42;6.63;;;1.80;;
53253;SDS011;39148;53.332;6.922;2023-03-31T07:07:07;5.15;;;1.40;;
53253;SDS011;39148;53.332;6.922;2023-03-31T07:09:33;4.22;;;1.17;;
53253;SDS011;39148;53.332;6.922;2023-03-31T07:11:59;6.10;;;1.50;;
53253;SDS011;39148;53.332;6.922;2023-03-31T07:14:29;4.28;;;1.40;;
53253;SDS011;39148;53.332;6.922;2023-03-31T07:16:55;6.35;;;1.60;;
53253;SDS011;39148;53.332;6.922;2023-03-31T07:19:21;5.45;;;1.30;;
53253;SDS011;39148;53.332;6.922;2023-03-31T07:21:47;4.07;;;1.40;;
53253;SDS011;39148;53.332;6.922;2023-03-31T07:24:13;5.30;;;1.33;;
53253;SDS011;39148;53.332;6.922;2023-03-31T07:26:39;3.88;;;1.20;;
53253;SDS011;39148;53.332;6.922;2023-03-31T07:29:05;5.85;;;1.52;;
53253;SDS011;39148;53.332;6.922;2023-03-31T07:31:31;7.63;;;1.80;;
53253;SDS011;39148;53.332;6.922;2023-03-31T07:33:57;5.03;;;1.15;;
53253;SDS011;39148;53.332;6.922;2023-03-31T07:36:23;4.88;;;1.48;;
53253;SDS011;39148;53.332;6.922;2023-03-31T07:38:49;4.68;;;1.70;;
53253;SDS011;39148;53.332;6.922;2023-03-31T07:41:17;5.15;;;1.30;;
53253;SDS011;39148;53.332;6.922;2023-03-31T07:43:43;4.88;;;1.27;;
53253;SDS011;39148;53.332;6.922;2023-03-31T07:46:17;5.28;;;1.50;;
53253;SDS011;39148;53.332;6.922;2023-03-31T07:48:44;4.97;;;1.55;;
53253;SDS011;39148;53.332;6.922;2023-03-31T07:51:11;4.93;;;1.10;;
53253;SDS011;39148;53.332;6.922;2023-03-31T07:53:38;4.35;;;1.40;;
53253;SDS011;39148;53.332;6.922;2023-03-31T07:56:03;5.30;;;1.15;;
53253;SDS011;39148;53.332;6.922;2023-03-31T07:58:30;3.90;;;1.08;;
53253;SDS011;39148;53.332;6.922;2023-03-31T08:00:55;3.45;;;1.15;;
53253;SDS011;39148;53.332;6.922;2023-03-31T08:03:21;4.85;;;1.52;;
53253;SDS011;39148;53.332;6.922;2023-03-31T08:05:50;5.20;;;1.42;;
53253;SDS011;39148;53.332;6.922;2023-03-31T08:08:16;4.13;;;1.20;;
53253;SDS011;39148;53.332;6.922;2023-03-31T08:10:42;3.15;;;1.10;;
53253;SDS011;39148;53.332;6.922;2023-03-31T08:13:08;3.33;;;1.10;;
53253;SDS011;39148;53.332;6.922;2023-03-31T08:15:35;4.72;;;1.23;;
53253;SDS011;39148;53.332;6.922;2023-03-31T08:18:01;3.83;;;1.10;;
53253;SDS011;39148;53.332;6.922;2023-03-31T08:20:27;4.68;;;1.10;;
53253;SDS011;39148;53.332;6.922;2023-03-31T08:22:53;4.45;;;1.10;;
53253;SDS011;39148;53.332;6.922;2023-03-31T08:25:20;4.22;;;1.05;;
53253;SDS011;39148;53.332;6.922;2023-03-31T08:27:47;3.92;;;1.33;;
53253;SDS011;39148;53.332;6.922;2023-03-31T08:30:15;4.05;;;1.30;;
53253;SDS011;39148;53.332;6.922;2023-03-31T08:32:42;4.97;;;1.25;;
53253;SDS011;39148;53.332;6.922;2023-03-31T08:35:08;3.17;;;0.85;;
53253;SDS011;39148;53.332;6.922;2023-03-31T08:37:34;4.18;;;1.40;;
53253;SDS011;39148;53.332;6.922;2023-03-31T08:40:04;4.88;;;1.05;;
53253;SDS011;39148;53.332;6.922;2023-03-31T08:45:25;3.30;;;1.00;;
53253;SDS011;39148;53.332;6.922;2023-03-31T08:47:53;3.90;;;0.88;;
53253;SDS011;39148;53.332;6.922;2023-03-31T08:50:26;3.47;;;1.00;;
53253;SDS011;39148;53.332;6.922;2023-03-31T08:55:23;4.20;;;1.42;;
53253;SDS011;39148;53.332;6.922;2023-03-31T08:58:07;4.35;;;1.40;;
53253;SDS011;39148;53.332;6.922;2023-03-31T09:00:45;2.88;;;1.00;;
53253;SDS011;39148;53.332;6.922;2023-03-31T09:03:22;2.42;;;0.65;;
53253;SDS011;39148;53.332;6.922;2023-03-31T09:16:10;4.95;;;1.25;;
53253;SDS011;39148;53.332;6.922;2023-03-31T09:18:38;3.40;;;1.27;;
53253;SDS011;39148;53.332;6.922;2023-03-31T09:29:18;4.40;;;1.30;;
53253;SDS011;39148;53.332;6.922;2023-03-31T09:31:45;2.95;;;0.80;;
53253;SDS011;39148;53.332;6.922;2023-03-31T09:34:18;3.42;;;1.15;;
53253;SDS011;39148;53.332;6.922;2023-03-31T09:36:46;3.20;;;0.90;;
53253;SDS011;39148;53.332;6.922;2023-03-31T09:39:13;4.55;;;1.00;;
53253;SDS011;39148;53.332;6.922;2023-03-31T09:41:41;4.10;;;1.00;;
53253;SDS011;39148;53.332;6.922;2023-03-31T09:44:27;3.22;;;0.98;;
53253;SDS011;39148;53.332;6.922;2023-03-31T09:46:56;3.88;;;0.90;;
53253;SDS011;39148;53.332;6.922;2023-03-31T09:49:26;1.95;;;0.80;;
53253;SDS011;39148;53.332;6.922;2023-03-31T09:52:00;4.38;;;1.20;;
53253;SDS011;39148;53.332;6.922;2023-03-31T09:54:37;2.90;;;0.90;;
53253;SDS011;39148;53.332;6.922;2023-03-31T09:57:30;3.38;;;1.10;;
53253;SDS011;39148;53.332;6.922;2023-03-31T10:00:15;4.93;;;1.27;;
53253;SDS011;39148;53.332;6.922;2023-03-31T10:02:42;5.03;;;1.00;;
53253;SDS011;39148;53.332;6.922;2023-03-31T10:07:47;4.55;;;1.15;;
53253;SDS011;39148;53.332;6.922;2023-03-31T10:10:47;4.38;;;1.17;;
53253;SDS011;39148;53.332;6.922;2023-03-31T10:13:08;4.30;;;1.20;;
53253;SDS011;39148;53.332;6.922;2023-03-31T10:15:38;3.92;;;1.02;;
53253;SDS011;39148;53.332;6.922;2023-03-31T10:18:04;4.18;;;1.10;;
53253;SDS011;39148;53.332;6.922;2023-03-31T10:23:47;3.63;;;1.00;;
53253;SDS011;39148;53.332;6.922;2023-03-31T10:25:48;3.72;;;0.90;;
53253;SDS011;39148;53.332;6.922;2023-03-31T10:28:16;3.38;;;0.90;;
53253;SDS011;39148;53.332;6.922;2023-03-31T10:30:46;3.30;;;1.00;;
53253;SDS011;39148;53.332;6.922;2023-03-31T10:33:15;3.85;;;0.95;;
53253;SDS011;39148;53.332;6.922;2023-03-31T10:35:42;4.32;;;1.00;;
53253;SDS011;39148;53.332;6.922;2023-03-31T10:38:13;3.60;;;0.93;;
53253;SDS011;39148;53.332;6.922;2023-03-31T10:40:40;3.50;;;0.90;;
53253;SDS011;39148;53.332;6.922;2023-03-31T10:43:17;3.65;;;0.90;;
53253;SDS011;39148;53.332;6.922;2023-03-31T10:51:17;3.95;;;1.00;;
53253;SDS011;39148;53.332;6.922;2023-03-31T10:53:44;2.97;;;0.95;;
53253;SDS011;39148;53.332;6.922;2023-03-31T11:01:30;2.85;;;0.98;;
53253;SDS011;39148;53.332;6.922;2023-03-31T11:22:41;2.88;;;0.80;;
53253;SDS011;39148;53.332;6.922;2023-03-31T11:25:14;4.05;;;0.93;;
53253;SDS011;39148;53.332;6.922;2023-03-31T11:30:27;2.88;;;0.80;;
53253;SDS011;39148;53.332;6.922;2023-03-31T11:45:51;3.63;;;1.00;;
53253;SDS011;39148;53.332;6.922;2023-03-31T11:48:32;4.35;;;0.95;;
53253;SDS011;39148;53.332;6.922;2023-03-31T11:51:01;3.75;;;0.77;;
53253;SDS011;39148;53.332;6.922;2023-03-31T11:53:30;3.63;;;0.93;;
53253;SDS011;39148;53.332;6.922;2023-03-31T11:55:57;3.75;;;0.90;;
53253;SDS011;39148;53.332;6.922;2023-03-31T12:03:23;4.32;;;0.80;;
53253;SDS011;39148;53.332;6.922;2023-03-31T12:06:12;3.22;;;0.90;;
53253;SDS011;39148;53.332;6.922;2023-03-31T12:11:11;4.40;;;0.98;;
53253;SDS011;39148;53.332;6.922;2023-03-31T12:13:42;3.05;;;0.88;;
53253;SDS011;39148;53.332;6.922;2023-03-31T12:16:17;3.97;;;0.90;;
53253;SDS011;39148;53.332;6.922;2023-03-31T12:18:48;4.10;;;1.10;;
53253;SDS011;39148;53.332;6.922;2023-03-31T12:21:23;4.63;;;0.90;;
53253;SDS011;39148;53.332;6.922;2023-03-31T12:23:50;3.05;;;0.80;;
53253;SDS011;39148;53.332;6.922;2023-03-31T12:26:27;3.30;;;1.05;;
53253;SDS011;39148;53.332;6.922;2023-03-31T12:28:59;3.47;;;1.00;;
53253;SDS011;39148;53.332;6.922;2023-03-31T12:31:28;5.28;;;1.30;;
53253;SDS011;39148;53.332;6.922;2023-03-31T12:41:45;5.40;;;0.95;;
53253;SDS011;39148;53.332;6.922;2023-03-31T12:57:19;3.90;;;1.00;;
53253;SDS011;39148;53.332;6.922;2023-03-31T13:00:08;5.45;;;1.17;;
53253;SDS011;39148;53.332;6.922;2023-03-31T13:02:41;7.18;;;1.20;;
53253;SDS011;39148;53.332;6.922;2023-03-31T13:08:03;4.32;;;1.10;;
53253;SDS011;39148;53.332;6.922;2023-03-31T13:10:30;4.90;;;1.17;;
53253;SDS011;39148;53.332;6.922;2023-03-31T13:15:28;4.15;;;1.48;;
53253;SDS011;39148;53.332;6.922;2023-03-31T13:18:05;4.28;;;1.10;;
53253;SDS011;39148;53.332;6.922;2023-03-31T13:20:38;3.88;;;1.00;;
53253;SDS011;39148;53.332;6.922;2023-03-31T13:23:13;3.53;;;0.90;;
53253;SDS011;39148;53.332;6.922;2023-03-31T13:25:49;3.55;;;1.20;;
53253;SDS011;39148;53.332;6.922;2023-03-31T13:30:48;5.00;;;1.55;;
53253;SDS011;39148;53.332;6.922;2023-03-31T13:35:52;4.90;;;1.42;;
53253;SDS011;39148;53.332;6.922;2023-03-31T13:44:14;6.88;;;1.90;;
53253;SDS011;39148;53.332;6.922;2023-03-31T13:46:49;4.78;;;1.30;;
53253;SDS011;39148;53.332;6.922;2023-03-31T13:49:57;6.90;;;1.40;;
53253;SDS011;39148;53.332;6.922;2023-03-31T13:52:20;6.28;;;1.65;;
53253;SDS011;39148;53.332;6.922;2023-03-31T14:06:48;5.97;;;1.73;;
53253;SDS011;39148;53.332;6.922;2023-03-31T14:11:59;4.88;;;1.58;;
53253;SDS011;39148;53.332;6.922;2023-03-31T14:14:42;4.82;;;1.42;;
53253;SDS011;39148;53.332;6.922;2023-03-31T14:17:08;5.53;;;1.85;;
53253;SDS011;39148;53.332;6.922;2023-03-31T14:36:54;5.82;;;1.60;;
53253;SDS011;39148;53.332;6.922;2023-03-31T14:39:24;7.10;;;1.60;;
53253;SDS011;39148;53.332;6.922;2023-03-31T14:41:53;6.93;;;1.88;;
53253;SDS011;39148;53.332;6.922;2023-03-31T14:44:22;5.60;;;1.42;;
53253;SDS011;39148;53.332;6.922;2023-03-31T14:46:50;5.95;;;2.00;;
53253;SDS011;39148;53.332;6.922;2023-03-31T14:49:20;6.72;;;1.95;;
53253;SDS011;39148;53.332;6.922;2023-03-31T14:51:51;5.18;;;2.00;;
53253;SDS011;39148;53.332;6.922;2023-03-31T14:54:18;5.75;;;1.60;;
53253;SDS011;39148;53.332;6.922;2023-03-31T14:56:55;5.10;;;1.30;;
53253;SDS011;39148;53.332;6.922;2023-03-31T14:59:24;4.10;;;1.48;;
53253;SDS011;39148;53.332;6.922;2023-03-31T15:01:53;6.47;;;1.40;;
53253;SDS011;39148;53.332;6.922;2023-03-31T15:04:20;5.43;;;1.38;;
53253;SDS011;39148;53.332;6.922;2023-03-31T15:06:48;5.13;;;1.65;;
53253;SDS011;39148;53.332;6.922;2023-03-31T15:09:20;4.63;;;1.27;;
53253;SDS011;39148;53.332;6.922;2023-03-31T15:11:58;3.15;;;0.95;;
53253;SDS011;39148;53.332;6.922;2023-03-31T15:14:29;5.43;;;1.30;;
53253;SDS011;39148;53.332;6.922;2023-03-31T15:16:58;5.88;;;1.30;;
53253;SDS011;39148;53.332;6.922;2023-03-31T15:19:26;5.95;;;1.20;;
53253;SDS011;39148;53.332;6.922;2023-03-31T15:22:04;6.38;;;1.30;;
53253;SDS011;39148;53.332;6.922;2023-03-31T15:24:38;5.75;;;1.10;;
53253;SDS011;39148;53.332;6.922;2023-03-31T15:27:06;3.97;;;1.00;;
53253;SDS011;39148;53.332;6.922;2023-03-31T15:29:44;4.05;;;1.38;;
53253;SDS011;39148;53.332;6.922;2023-03-31T15:32:14;4.55;;;1.15;;
53253;SDS011;39148;53.332;6.922;2023-03-31T15:34:42;6.72;;;1.50;;
53253;SDS011;39148;53.332;6.922;2023-03-31T15:37:10;4.15;;;1.20;;
53253;SDS011;39148;53.332;6.922;2023-03-31T15:39:36;3.97;;;1.10;;
53253;SDS011;39148;53.332;6.922;2023-03-31T15:42:04;3.03;;;1.10;;
53253;SDS011;39148;53.332;6.922;2023-03-31T15:44:47;4.53;;;1.13;;
53253;SDS011;39148;53.332;6.922;2023-03-31T15:47:22;4.90;;;1.40;;
53253;SDS011;39148;53.332;6.922;2023-03-31T15:52:30;3.58;;;1.17;;
53253;SDS011;39148;53.332;6.922;2023-03-31T15:55:22;4.38;;;1.20;;
53253;SDS011;39148;53.332;6.922;2023-03-31T15:57:53;4.75;;;1.65;;
53253;SDS011;39148;53.332;6.922;2023-03-31T16:03:01;4.80;;;1.42;;
53253;SDS011;39148;53.332;6.922;2023-03-31T16:08:36;4.10;;;1.42;;
53253;SDS011;39148;53.332;6.922;2023-03-31T16:11:12;4.28;;;1.17;;
53253;SDS011;39148;53.332;6.922;2023-03-31T16:13:47;4.25;;;1.20;;
53253;SDS011;39148;53.332;6.922;2023-03-31T16:16:17;4.82;;;1.60;;
53253;SDS011;39148;53.332;6.922;2023-03-31T16:18:46;3.67;;;1.27;;
53253;SDS011;39148;53.332;6.922;2023-03-31T16:21:23;4.70;;;1.20;;
53253;SDS011;39148;53.332;6.922;2023-03-31T16:23:52;4.47;;;1.65;;
53253;SDS011;39148;53.332;6.922;2023-03-31T16:26:22;4.55;;;1.40;;
53253;SDS011;39148;53.332;6.922;2023-03-31T16:28:51;4.90;;;1.23;;
53253;SDS011;39148;53.332;6.922;2023-03-31T16:31:28;4.18;;;1.50;;
53253;SDS011;39148;53.332;6.922;2023-03-31T16:33:56;4.03;;;1.58;;
53253;SDS011;39148;53.332;6.922;2023-03-31T16:36:21;4.95;;;1.55;;
53253;SDS011;39148;53.332;6.922;2023-03-31T16:38:50;5.25;;;1.60;;
53253;SDS011;39148;53.332;6.922;2023-03-31T16:41:17;4.05;;;1.60;;
53253;SDS011;39148;53.332;6.922;2023-03-31T16:43:43;3.58;;;1.52;;
53253;SDS011;39148;53.332;6.922;2023-03-31T16:46:10;4.43;;;1.38;;
53253;SDS011;39148;53.332;6.922;2023-03-31T16:48:36;5.03;;;1.50;;
53253;SDS011;39148;53.332;6.922;2023-03-31T16:51:02;5.22;;;2.03;;
53253;SDS011;39148;53.332;6.922;2023-03-31T16:53:29;4.30;;;1.50;;
53253;SDS011;39148;53.332;6.922;2023-03-31T16:55:57;4.22;;;1.40;;
53253;SDS011;39148;53.332;6.922;2023-03-31T16:58:25;5.05;;;1.70;;
53253;SDS011;39148;53.332;6.922;2023-03-31T17:00:54;4.78;;;2.00;;
53253;SDS011;39148;53.332;6.922;2023-03-31T17:03:21;4.65;;;1.95;;
53253;SDS011;39148;53.332;6.922;2023-03-31T17:05:49;4.70;;;1.73;;
53253;SDS011;39148;53.332;6.922;2023-03-31T17:08:17;5.47;;;1.77;;
53253;SDS011;39148;53.332;6.922;2023-03-31T17:11:00;5.28;;;1.77;;
53253;SDS011;39148;53.332;6.922;2023-03-31T17:13:29;6.38;;;2.08;;
53253;SDS011;39148;53.332;6.922;2023-03-31T17:15:56;3.35;;;1.40;;
53253;SDS011;39148;53.332;6.922;2023-03-31T17:18:23;4.82;;;1.90;;
53253;SDS011;39148;53.332;6.922;2023-03-31T17:20:50;4.47;;;2.03;;
53253;SDS011;39148;53.332;6.922;2023-03-31T17:23:18;3.90;;;1.50;;
53253;SDS011;39148;53.332;6.922;2023-03-31T17:25:45;6.50;;;2.35;;
53253;SDS011;39148;53.332;6.922;2023-03-31T17:28:12;5.75;;;1.92;;
53253;SDS011;39148;53.332;6.922;2023-03-31T17:30:38;6.82;;;2.80;;
53253;SDS011;39148;53.332;6.922;2023-03-31T17:33:06;5.43;;;1.80;;
53253;SDS011;39148;53.332;6.922;2023-03-31T17:35:32;5.82;;;1.80;;
53253;SDS011;39148;53.332;6.922;2023-03-31T17:37:58;5.03;;;1.85;;
53253;SDS011;39148;53.332;6.922;2023-03-31T17:40:24;4.60;;;1.80;;
53253;SDS011;39148;53.332;6.922;2023-03-31T17:42:50;4.60;;;1.75;;
53253;SDS011;39148;53.332;6.922;2023-03-31T17:45:16;6.15;;;1.98;;
53253;SDS011;39148;53.332;6.922;2023-03-31T17:47:42;5.57;;;1.88;;
53253;SDS011;39148;53.332;6.922;2023-03-31T17:50:09;7.43;;;2.40;;
53253;SDS011;39148;53.332;6.922;2023-03-31T17:52:36;6.10;;;2.25;;
53253;SDS011;39148;53.332;6.922;2023-03-31T17:55:03;5.82;;;2.55;;
53253;SDS011;39148;53.332;6.922;2023-03-31T17:57:29;6.15;;;2.10;;
53253;SDS011;39148;53.332;6.922;2023-03-31T17:59:56;6.63;;;2.33;;
53253;SDS011;39148;53.332;6.922;2023-03-31T18:02:22;5.95;;;2.42;;
53253;SDS011;39148;53.332;6.922;2023-03-31T18:04:48;4.70;;;1.67;;
53253;SDS011;39148;53.332;6.922;2023-03-31T18:07:14;5.65;;;2.03;;
53253;SDS011;39148;53.332;6.922;2023-03-31T18:09:42;5.47;;;2.10;;
53253;SDS011;39148;53.332;6.922;2023-03-31T18:12:09;5.78;;;1.90;;
53253;SDS011;39148;53.332;6.922;2023-03-31T18:14:35;7.22;;;2.00;;
53253;SDS011;39148;53.332;6.922;2023-03-31T18:17:01;5.10;;;1.88;;
53253;SDS011;39148;53.332;6.922;2023-03-31T18:19:27;5.72;;;2.22;;
53253;SDS011;39148;53.332;6.922;2023-03-31T18:21:54;5.13;;;2.17;;
53253;SDS011;39148;53.332;6.922;2023-03-31T18:24:20;5.80;;;2.03;;